Météo Nord-Pas-de-Calais   La météo au plus près de chez vous

Station météorologique

Observations météo à La Mure-Argens (04136)

04136001 920 m Dernier relevé à 20:42
19.6°C
Humidité 42 % Vent 3.2 km/h

Journée consultée

Jeudi 3 Septembre 2026

Synthèse de la journée

Périodes de référence en UTC

Température maximale

30.6°C

à 15:00

06h 06h

Température minimale

7°C

à 08:00

18h 18h

Rafale maximale

30 km/h

à 16:54

00h 00h

Précipitations

0 mm

Cumul quotidien

06h 06h

Graphiques de la journée

Heure locale Réduire

Données détaillées

Relevés météo

Pas de 6 minutes Afficher les relevés infra-horaires
Relevés météo détaillés à La Mure-Argens pour le Jeudi 3 Septembre 2026
Heure Température °C Point de rosée °C Humidité % Vent moyen (raf.), km/h Précipitations mm
20:42 19.6 °C 10.3 °C 55 % 3 km/h (6 km/h) 0 mm0 mm
20:36 20.2 °C 9.7 °C 51 % 3 km/h (6 km/h) 0 mm0 mm
20:30 20.7 °C 9.9 °C 50 % 4 km/h (8 km/h) 0 mm0 mm
20:24 21.2 °C 10.7 °C 51 % 3 km/h (8 km/h) 0 mm0 mm
20:18 22 °C 11.1 °C 50 % 2 km/h (7 km/h) 0 mm0 mm
20:12 22.6 °C 10.4 °C 46 % 2 km/h (7 km/h) 0 mm0 mm
20:06 23 °C 11.1 °C 47 % 2 km/h (4 km/h) 0 mm0 mm
20:00 23.5 °C 10.9 °C 45 % 3 km/h (6 km/h) 0 mm0 mm
19:54 23.4 °C 12.1 °C 49 % 4 km/h (8 km/h) 0 mm0 mm
19:48 23.9 °C 10.6 °C 43 % 4 km/h (9 km/h) 0 mm0 mm
19:42 23.8 °C 10.1 °C 42 % 3 km/h (7 km/h) 0 mm0 mm
19:36 23.2 °C 11.9 °C 49 % 3 km/h (7 km/h) 0 mm0 mm
19:30 24.6 °C 11.5 °C 44 % 3 km/h (8 km/h) 0 mm0 mm
19:24 24.8 °C 11.7 °C 44 % 4 km/h (10 km/h) 0 mm0 mm
19:18 25.3 °C 10.7 °C 40 % 5 km/h (10 km/h) 0 mm0 mm
19:12 25.5 °C 10.9 °C 40 % 4 km/h (9 km/h) 0 mm0 mm
19:06 25.9 °C 11.6 °C 41 % 3 km/h (7 km/h) 0 mm0 mm
19:00 26.6 °C 11.5 °C 39 % 3 km/h (6 km/h) 0 mm0 mm
18:54 27.1 °C 11.9 °C 39 % 4 km/h (10 km/h) 0 mm0 mm
18:48 27.5 °C 11.1 °C 36 % 5 km/h (10 km/h) 0 mm0 mm
18:42 28.5 °C 11.1 °C 34 % 6 km/h (12 km/h) 0 mm0 mm
18:36 28.8 °C 11.8 °C 35 % 7 km/h (18 km/h) 0 mm0 mm
18:30 29 °C 11.5 °C 34 % 7 km/h (18 km/h) 0 mm0 mm
18:24 29 °C 11.5 °C 34 % 9 km/h (28 km/h) 0 mm0 mm
18:18 29.1 °C 11.6 °C 34 % 9 km/h (28 km/h) 0 mm0 mm
18:12 29.1 °C 12.1 °C 35 % 8 km/h (22 km/h) 0 mm0 mm
18:06 29.1 °C 11.6 °C 34 % 9 km/h (22 km/h) 0 mm0 mm
18:00 29.1 °C 12.5 °C 36 % 10 km/h (23 km/h) 0 mm0 mm
17:54 29.3 °C 12.3 °C 35 % 9 km/h (23 km/h) 0 mm0 mm
17:48 29.2 °C 12.6 °C 36 % 8 km/h (19 km/h) 0 mm0 mm
17:42 29.3 °C 12.3 °C 35 % 9 km/h (23 km/h) 0 mm0 mm
17:36 29.3 °C 12.3 °C 35 % 10 km/h (23 km/h) 0 mm0 mm
17:30 29.5 °C 12.9 °C 36 % 9 km/h (22 km/h) 0 mm0 mm
17:24 29.5 °C 13.3 °C 37 % 9 km/h (22 km/h) 0 mm0 mm
17:18 29.4 °C 13.2 °C 37 % 12 km/h (28 km/h) 0 mm0 mm
17:12 29.1 °C 12.9 °C 37 % 13 km/h (28 km/h) 0 mm0 mm
17:06 29.4 °C 13.6 °C 38 % 12 km/h (25 km/h) 0 mm0 mm
17:00 29.4 °C 13.2 °C 37 % 14 km/h (30 km/h) 0 mm0 mm
16:54 29.8 °C 14 °C 38 % 11 km/h (30 km/h) 0 mm0 mm
16:48 29.7 °C 13.5 °C 37 % 11 km/h (28 km/h) 0 mm0 mm
16:42 29.8 °C 14 °C 38 % 12 km/h (24 km/h) 0 mm0 mm
16:36 29.7 °C 14.3 °C 39 % 13 km/h (25 km/h) 0 mm0 mm
16:30 29.8 °C 13.5 °C 37 % 12 km/h (23 km/h) 0 mm0 mm
16:24 29.9 °C 14 °C 38 % 12 km/h (23 km/h) 0 mm0 mm
16:18 29.8 °C 14 °C 38 % 11 km/h (21 km/h) 0 mm0 mm
16:12 29.8 °C 14.4 °C 39 % 12 km/h (23 km/h) 0 mm0 mm
16:06 29.8 °C 14 °C 38 % 14 km/h (29 km/h) 0 mm0 mm
16:00 29.7 °C 14.7 °C 40 % 14 km/h (29 km/h) 0 mm0 mm
15:54 30 °C 14.5 °C 39 % 13 km/h (22 km/h) 0 mm0 mm
15:48 29.9 °C 14 °C 38 % 13 km/h (27 km/h) 0 mm0 mm
15:42 30.3 °C 14.4 °C 38 % 11 km/h (23 km/h) 0 mm0 mm
15:36 30.1 °C 14.2 °C 38 % 12 km/h (23 km/h) 0 mm0 mm
15:30 30 °C 14.9 °C 40 % 12 km/h (22 km/h) 0 mm0 mm
15:24 30.3 °C 14.4 °C 38 % 9 km/h (22 km/h) 0 mm0 mm
15:18 30.2 °C 13.9 °C 37 % 10 km/h (25 km/h) 0 mm0 mm
15:12 30.4 °C 14.1 °C 37 % 9 km/h (21 km/h) 0 mm0 mm
15:06 30.4 °C 14.1 °C 37 % 8 km/h (18 km/h) 0 mm0 mm
15:00 30.6 °C 14.7 °C 38 % 7 km/h (15 km/h) 0 mm0 mm
14:54 30.3 °C 14.8 °C 39 % 6 km/h (15 km/h) 0 mm0 mm
14:48 30 °C 14.5 °C 39 % 8 km/h (15 km/h) 0 mm0 mm
14:42 30.2 °C 14.7 °C 39 % 8 km/h (15 km/h) 0 mm0 mm
14:36 30 °C 13.7 °C 37 % 8 km/h (15 km/h) 0 mm0 mm
14:30 29.7 °C 12.6 °C 35 % 8 km/h (15 km/h) 0 mm0 mm
14:24 29.6 °C 12.9 °C 36 % 5 km/h (11 km/h) 0 mm0 mm
14:18 29.3 °C 12.7 °C 36 % 6 km/h (14 km/h) 0 mm0 mm
14:12 29.4 °C 12.3 °C 35 % 8 km/h (14 km/h) 0 mm0 mm
14:06 29.5 °C 12 °C 34 % 6 km/h (13 km/h) 0 mm0 mm
14:00 29.6 °C 13.8 °C 38 % 6 km/h (13 km/h) 0 mm0 mm
13:54 29.6 °C 13.4 °C 37 % 4 km/h (12 km/h) 0 mm0 mm
13:48 29.3 °C 12.3 °C 35 % 4 km/h (8 km/h) 0 mm0 mm
13:42 29.2 °C 11.3 °C 33 % 5 km/h (10 km/h) 0 mm0 mm
13:36 29.4 °C 11.4 °C 33 % 7 km/h (17 km/h) 0 mm0 mm
13:30 29.2 °C 12.6 °C 36 % 6 km/h (17 km/h) 0 mm0 mm
13:24 28.8 °C 11.8 °C 35 % 6 km/h (13 km/h) 0 mm0 mm
13:18 28.7 °C 11.7 °C 35 % 5 km/h (13 km/h) 0 mm0 mm
13:12 28.8 °C 12.7 °C 37 % 3 km/h (9 km/h) 0 mm0 mm
13:06 28.7 °C 12.2 °C 36 % 4 km/h (11 km/h) 0 mm0 mm
13:00 28.5 °C 13.2 °C 39 % 3 km/h (11 km/h) 0 mm0 mm
12:54 28.2 °C 12.1 °C 37 % 3 km/h (9 km/h) 0 mm0 mm
12:48 28.3 °C 13.4 °C 40 % 5 km/h (10 km/h) 0 mm0 mm
12:42 28.3 °C 13.8 °C 41 % 5 km/h (10 km/h) 0 mm0 mm
12:36 27.9 °C 13.4 °C 41 % 4 km/h (10 km/h) 0 mm0 mm
12:30 27.8 °C 13.3 °C 41 % 4 km/h (10 km/h) 0 mm0 mm
12:24 27.4 °C 13.7 °C 43 % 5 km/h (11 km/h) 0 mm0 mm
12:18 27.2 °C 15.2 °C 48 % 5 km/h (11 km/h) 0 mm0 mm
12:12 27.3 °C 13.3 °C 42 % 3 km/h (8 km/h) 0 mm0 mm
12:06 27.1 °C 12.7 °C 41 % 3 km/h (7 km/h) 0 mm0 mm
12:00 26.7 °C 13.1 °C 43 % 3 km/h (7 km/h) 0 mm0 mm
11:54 26.5 °C 13.9 °C 46 % 2 km/h (5 km/h) 0 mm0 mm
11:48 26 °C 12.1 °C 42 % 2 km/h (4 km/h) 0 mm0 mm
11:42 25.5 °C 13 °C 46 % 0 mm0 mm
11:36 25.1 °C 11.3 °C 42 % 2 km/h (6 km/h) 0 mm0 mm
11:30 24.8 °C 11.4 °C 43 % 2 km/h (5 km/h) 0 mm0 mm
11:24 24.2 °C 11.2 °C 44 % 0 mm0 mm
11:18 24 °C 11.3 °C 45 % 3 km/h (7 km/h) 0 mm0 mm
11:12 23.2 °C 10.3 °C 44 % 3 km/h (6 km/h) 0 mm0 mm
11:06 22.9 °C 11 °C 47 % 3 km/h (7 km/h) 0 mm0 mm
11:00 22.5 °C 10.9 °C 48 % 3 km/h (8 km/h) 0 mm0 mm
10:54 21.9 °C 10.4 °C 48 % 2 km/h (6 km/h) 0 mm0 mm
10:48 21.6 °C 9.8 °C 47 % 3 km/h (6 km/h) 0 mm0 mm
10:42 21.4 °C 10.5 °C 50 % 3 km/h (6 km/h) 0 mm0 mm
10:36 21 °C 9.3 °C 47 % 3 km/h (6 km/h) 0 mm0 mm
10:30 20.7 °C 9.6 °C 49 % 2 km/h (6 km/h) 0 mm0 mm
10:24 20.2 °C 9.1 °C 49 % 0 km/h (5 km/h) 0 mm0 mm
10:18 19.7 °C 9 °C 50 % 0 km/h (5 km/h) 0 mm0 mm
10:12 18.9 °C 9.4 °C 54 % 2 km/h (5 km/h) 0 mm0 mm
10:06 18.9 °C 9.7 °C 55 % 2 km/h (5 km/h) 0 mm0 mm
10:00 18.2 °C 10.1 °C 59 % 2 km/h (6 km/h) 0 mm0 mm
09:54 17.8 °C 9.2 °C 57 % 2 km/h (6 km/h) 0 mm0 mm
09:48 17.2 °C 8.3 °C 56 % 0 km/h (4 km/h) 0 mm0 mm
09:42 16.7 °C 8.6 °C 59 % 0 km/h (4 km/h) 0 mm0 mm
09:36 15.7 °C 8.7 °C 63 % 3 km/h (6 km/h) 0 mm0 mm
09:30 15.1 °C 8.6 °C 65 % 4 km/h (8 km/h) 0 mm0 mm
09:24 14.4 °C 9.2 °C 71 % 5 km/h (8 km/h) 0 mm0 mm
09:18 13.5 °C 9.2 °C 75 % 5 km/h (9 km/h) 0 mm0 mm
09:12 13.2 °C 9.4 °C 78 % 6 km/h (9 km/h) 0 mm0 mm
09:06 12.7 °C 9.3 °C 80 % 5 km/h (8 km/h) 0 mm0 mm
09:00 12.4 °C 9.6 °C 83 % 3 km/h (6 km/h) 0 mm0 mm
08:54 11.2 °C 9.3 °C 88 % 3 km/h (5 km/h) 0 mm0 mm
08:48 10.5 °C 9.1 °C 91 % 2 km/h (4 km/h) 0 mm0 mm
08:42 9.5 °C 9.2 °C 98 % 2 km/h (5 km/h) 0 mm0 mm
08:36 8.4 °C 7.6 °C 95 % 3 km/h (6 km/h) 0 mm0 mm
08:30 8.2 °C 7.6 °C 96 % 3 km/h (6 km/h) 0 mm0 mm
08:24 8 °C 7.2 °C 95 % 3 km/h (6 km/h) 0 mm0 mm
08:18 8 °C 7.2 °C 95 % 2 km/h (8 km/h) 0 mm0 mm
08:12 8 °C 7.4 °C 96 % 2 km/h (8 km/h) 0 mm0 mm
08:06 8 °C 7.6 °C 97 % 0 km/h (3 km/h) 0 mm0 mm
08:00 7.7 °C 7.3 °C 97 % 2 km/h (4 km/h) 0 mm0 mm
07:54 7.7 °C 7.1 °C 96 % 2 km/h (4 km/h) 0 mm0 mm
07:48 7.7 °C 7.4 °C 98 % 2 km/h (4 km/h) 0 mm0 mm
07:42 7.4 °C 7 °C 97 % 0 km/h (4 km/h) 0 mm0 mm
07:36 7.3 °C 6.9 °C 97 % 0 km/h (4 km/h) 0 mm0 mm
07:30 7.4 °C 7 °C 97 % 0 km/h (3 km/h) 0 mm0 mm
07:24 7.1 °C 6.5 °C 96 % 0 km/h (4 km/h) 0 mm0 mm
07:18 7.1 °C 6.5 °C 96 % 2 km/h (6 km/h) 0 mm0 mm
07:12 7.2 °C 6.6 °C 96 % 3 km/h (6 km/h) 0 mm0 mm
07:06 7.2 °C 6.6 °C 96 % 0 km/h (5 km/h) 0 mm0 mm
07:00 7.4 °C 7 °C 97 % 0 km/h (3 km/h) 0 mm0 mm
06:54 7.3 °C 6.9 °C 97 % 0 km/h (4 km/h) 0 mm0 mm
06:48 7.4 °C 7 °C 97 % 3 km/h (6 km/h) 0 mm0 mm
06:42 7.2 °C 6.8 °C 97 % 2 km/h (6 km/h) 0 mm0 mm
06:36 7.3 °C 6.9 °C 97 % 0 km/h (3 km/h) 0 mm0 mm
06:30 7.3 °C 6.7 °C 96 % 0 km/h (3 km/h) 0 mm0 mm
06:24 7.3 °C 6.9 °C 97 % 2 km/h (5 km/h) 0 mm0 mm
06:18 7.4 °C 6.8 °C 96 % 2 km/h (4 km/h) 0 mm0 mm
06:12 7.3 °C 6.6 °C 95 % 3 km/h (6 km/h) 0 mm0 mm
06:06 7.3 °C 6.2 °C 93 % 4 km/h (6 km/h) 0 mm0 mm
06:00 7.6 °C 7 °C 96 % 0 km/h (5 km/h) 0 mm0 mm
05:54 7.8 °C 7.2 °C 96 % 0 km/h (3 km/h) 0 mm0 mm
05:48 7.9 °C 7.3 °C 96 % 0 km/h (5 km/h) 0 mm0 mm
05:42 8 °C 7.6 °C 97 % 0 km/h (5 km/h) 0 mm0 mm
05:36 8.1 °C 7.7 °C 97 % 0 km/h (3 km/h) 0 mm0 mm
05:30 7.9 °C 7.1 °C 95 % 0 km/h (2 km/h) 0 mm0 mm
05:24 8 °C 7.1 °C 94 % 0 km/h (4 km/h) 0 mm0 mm
05:18 8.2 °C 7.1 °C 93 % 2 km/h (4 km/h) 0 mm0 mm
05:12 8.4 °C 7.2 °C 92 % 0 km/h (4 km/h) 0 mm0 mm
05:06 8.5 °C 7.6 °C 94 % 0 km/h (3 km/h) 0 mm0 mm
05:00 8.5 °C 7.4 °C 93 % 0 km/h (4 km/h) 0 mm0 mm
04:54 8.7 °C 7.6 °C 93 % 0 km/h (4 km/h) 0 mm0 mm
04:48 8.9 °C 7.8 °C 93 % 2 km/h (5 km/h) 0 mm0 mm
04:42 9 °C 7.6 °C 91 % 3 km/h (5 km/h) 0 mm0 mm
04:36 9.2 °C 7.6 °C 90 % 3 km/h (6 km/h) 0 mm0 mm
04:30 8.6 °C 7.5 °C 93 % 3 km/h (6 km/h) 0 mm0 mm
04:24 8.7 °C 7.9 °C 95 % 2 km/h (5 km/h) 0 mm0 mm
04:18 8.8 °C 8 °C 95 % 0 km/h (4 km/h) 0 mm0 mm
04:12 8.9 °C 8 °C 94 % 0 km/h (3 km/h) 0 mm0 mm
04:06 9 °C 8.1 °C 94 % 0 km/h (3 km/h) 0 mm0 mm
04:00 9.1 °C 8.2 °C 94 % 0 km/h (3 km/h) 0 mm0 mm
03:54 9.3 °C 8.5 °C 95 % 0 km/h (3 km/h) 0 mm0 mm
03:48 9.4 °C 8.6 °C 95 % 0 km/h (4 km/h) 0 mm0 mm
03:42 9.3 °C 8.5 °C 95 % 0 km/h (3 km/h) 0 mm0 mm
03:36 9.4 °C 8.5 °C 94 % 2 km/h (5 km/h) 0 mm0 mm
03:30 9.4 °C 8.2 °C 92 % 0 km/h (5 km/h) 0 mm0 mm
03:24 9.6 °C 8.7 °C 94 % 0 km/h (4 km/h) 0 mm0 mm
03:18 9.6 °C 8.7 °C 94 % 2 km/h (4 km/h) 0 mm0 mm
03:12 9.7 °C 8.8 °C 94 % 0 km/h (3 km/h) 0 mm0 mm
03:06 9.7 °C 8.9 °C 95 % 0 km/h (3 km/h) 0 mm0 mm
03:00 9.7 °C 8.9 °C 95 % 0 km/h (3 km/h) 0 mm0 mm
02:54 9.6 °C 8.7 °C 94 % 0 km/h (2 km/h) 0 mm0 mm
02:48 9.8 °C 8.9 °C 94 % 0 km/h (3 km/h) 0 mm0 mm
02:42 9.7 °C 8.8 °C 94 % 0 km/h (3 km/h) 0 mm0 mm
02:36 9.9 °C 9 °C 94 % 2 km/h (4 km/h) 0 mm0 mm
02:30 9.9 °C 9 °C 94 % 2 km/h (5 km/h) 0 mm0 mm
02:24 9.9 °C 8.8 °C 93 % 3 km/h (5 km/h) 0 mm0 mm
02:18 10.1 °C 8.7 °C 91 % 2 km/h (5 km/h) 0 mm0 mm
02:12 10.2 °C 9 °C 92 % 2 km/h (4 km/h) 0 mm0 mm
02:06 10.3 °C 9.1 °C 92 % 2 km/h (4 km/h) 0 mm0 mm
02:00 10.4 °C 9 °C 91 % 0 km/h (5 km/h) 0 mm0 mm
01:54 10.4 °C 9.2 °C 92 % 0 km/h (3 km/h) 0 mm0 mm
01:48 10.6 °C 8.9 °C 89 % 0 km/h (3 km/h) 0 mm0 mm
01:42 10.8 °C 9.2 °C 90 % 0 km/h (2 km/h) 0 mm0 mm
01:36 11 °C 9.3 °C 89 % 0 km/h (3 km/h) 0 mm0 mm
01:30 11.1 °C 9.4 °C 89 % 0 km/h (4 km/h) 0 mm0 mm
01:24 11.2 °C 8.6 °C 84 % 2 km/h (4 km/h) 0 mm0 mm
01:18 11.6 °C 9.5 °C 87 % 0 km/h (4 km/h) 0 mm0 mm
01:12 11.9 °C 9.5 °C 85 % 0 km/h (4 km/h) 0 mm0 mm
01:06 12.1 °C 9.5 °C 84 % 0 km/h (3 km/h) 0 mm0 mm
01:00 12.3 °C 9.8 °C 85 % 2 km/h (3 km/h) 0 mm0 mm
00:54 12.7 °C 9.7 °C 82 % 2 km/h (6 km/h) 0 mm0 mm
00:48 13 °C 10 °C 82 % 4 km/h (7 km/h) 0 mm0 mm
00:42 13.2 °C 10 °C 81 % 6 km/h (9 km/h) 0 mm0 mm
00:36 13.7 °C 9.9 °C 78 % 7 km/h (12 km/h) 0 mm0 mm
00:30 13.3 °C 9.9 °C 80 % 6 km/h (12 km/h) 0 mm0 mm
00:24 13.1 °C 9.9 °C 81 % 4 km/h (9 km/h) 0 mm0 mm
00:18 13.4 °C 9.6 °C 78 % 4 km/h (9 km/h) 0 mm0 mm
00:12 13.9 °C 10.1 °C 78 % 0 km/h (4 km/h) 0 mm0 mm
00:06 13.8 °C 10 °C 78 % 0 km/h (4 km/h) 0 mm0 mm
00:00 14.3 °C 10.3 °C 77 % 3 km/h (8 km/h) 0 mm0 mm

Données via Météo-France

Relevés météo à La Mure-Argens

Cette page rassemble les observations de la station de La Mure-Argens : température, humidité, vent, précipitations et pression atmosphérique. Les graphiques facilitent le suivi de la journée, tandis que le tableau donne accès aux mesures horaires et infra-horaires disponibles.

Pour replacer ces mesures dans leur contexte, consultez la climatologie de La Mure-Argens ainsi que ses normales et records. Retrouvez aussi la carte des observations météo en temps réel.